Time;durP1;ratioP1;P1;durP2;ratioP2;P2;SDS_P1;SDS_P2;PMS_P1;PMS_P2;Temp;Humidity;BMP_temperature;BMP_pressure;BME280_temperature;BME280_humidity;BME280_pressure;Samples;Min_cycle;Max_cycle;Signal;HPM_P1;HPM_P2
2022/11/15 00:00:25;;;;;;;151.40;55.30;;;;;;;6.09;100.00;100602.38;4996840;28;20132;-59
2022/11/15 00:02:52;;;;;;;142.35;54.25;;;;;;;6.33;100.00;100647.25;5003285;28;20491;-59
2022/11/15 00:05:18;;;;;;;166.85;57.10;;;;;;;6.11;100.00;100600.59;4992440;28;20320;-60
2022/11/15 00:07:43;;;;;;;156.20;57.60;;;;;;;6.33;100.00;100637.69;5023559;28;20034;-59
2022/11/15 00:10:08;;;;;;;155.70;55.45;;;;;;;6.37;100.00;100630.63;5003958;28;20054;-59
2022/11/15 00:12:34;;;;;;;142.85;54.92;;;;;;;6.08;100.00;100592.81;4989044;28;20091;-59
2022/11/15 00:14:59;;;;;;;143.63;55.15;;;;;;;6.36;100.00;100627.16;4988091;28;20039;-60
2022/11/15 00:17:24;;;;;;;148.75;56.53;;;;;;;6.32;100.00;100616.78;5004187;28;20159;-60
2022/11/15 00:19:49;;;;;;;163.98;58.45;;;;;;;6.32;100.00;100627.22;4995866;28;20046;-60
2022/11/15 00:22:15;;;;;;;154.05;56.78;;;;;;;6.29;100.00;100617.69;4997778;28;20038;-59
2022/11/15 00:24:40;;;;;;;151.40;57.88;;;;;;;6.39;100.00;100644.53;5002785;28;20038;-59
2022/11/15 00:27:05;;;;;;;146.55;56.25;;;;;;;6.38;100.00;100633.22;4991924;28;20031;-60
2022/11/15 00:29:31;;;;;;;144.13;54.92;;;;;;;6.40;100.00;100634.03;5003707;28;20095;-59
2022/11/15 00:31:56;;;;;;;156.68;56.42;;;;;;;6.04;100.00;100561.56;4996830;28;20038;-59
2022/11/15 00:34:21;;;;;;;160.95;56.53;;;;;;;6.35;100.00;100608.88;4996834;28;20409;-59
2022/11/15 00:36:46;;;;;;;185.85;57.75;;;;;;;6.43;100.00;100625.28;5003750;28;20112;-59
2022/11/15 00:39:12;;;;;;;168.75;54.72;;;;;;;6.38;100.00;100604.47;4991931;28;20045;-59
2022/11/15 00:41:37;;;;;;;160.68;56.90;;;;;;;6.45;100.00;100616.50;5019505;28;20120;-60
2022/11/15 00:44:02;;;;;;;181.20;59.60;;;;;;;6.47;100.00;100596.44;5008124;28;20466;-60
2022/11/15 00:46:28;;;;;;;175.93;56.67;;;;;;;6.43;100.00;100602.59;4995706;28;20085;-60
2022/11/15 00:48:53;;;;;;;164.60;55.75;;;;;;;6.08;100.00;100532.72;5004585;28;20479;-60
2022/11/15 00:51:18;;;;;;;155.38;56.38;;;;;;;6.48;100.00;100605.16;4991636;28;20033;-60
2022/11/15 00:53:44;;;;;;;179.45;56.28;;;;;;;6.15;100.00;100536.94;5023929;28;20065;-59
2022/11/15 00:56:09;;;;;;;178.95;56.95;;;;;;;6.49;100.00;100585.94;5008228;28;20030;-60
2022/11/15 00:58:34;;;;;;;167.65;54.80;;;;;;;6.10;100.00;100517.03;5060219;28;20117;-59
2022/11/15 01:01:11;;;;;;;181.63;59.83;;;;;;;6.55;100.00;100596.28;5003222;28;20411;-59
2022/11/15 01:03:37;;;;;;;193.30;61.60;;;;;;;6.26;100.00;100534.13;4984719;28;20121;-60
2022/11/15 01:06:03;;;;;;;186.18;57.22;;;;;;;6.61;100.00;100593.53;4997354;28;20067;-60
2022/11/15 01:08:28;;;;;;;208.23;59.30;;;;;;;6.63;100.00;100594.38;5007273;28;20033;-60
2022/11/15 01:10:53;;;;;;;219.95;60.78;;;;;;;6.30;100.00;100532.31;4990509;28;20040;-61
2022/11/15 01:13:18;;;;;;;198.00;61.42;;;;;;;6.31;100.00;100521.81;5003156;28;20447;-60
2022/11/15 01:15:44;;;;;;;220.73;57.83;;;;;;;6.62;100.00;100567.38;4993584;28;20044;-60
2022/11/15 01:18:09;;;;;;;197.93;59.88;;;;;;;6.69;100.00;100578.56;5041604;28;20125;-60
2022/11/15 01:20:39;;;;;;;234.75;62.78;;;;;;;6.73;100.00;100572.38;5007463;28;20125;-60
2022/11/15 01:23:05;;;;;;;228.52;59.17;;;;;;;6.76;100.00;100577.53;4991621;28;20042;-60
2022/11/15 01:25:30;;;;;;;217.52;62.40;;;;;;;6.74;100.00;100572.31;5002852;28;20368;-60
2022/11/15 01:27:55;;;;;;;212.52;59.60;;;;;;;6.42;100.00;100500.69;4995967;28;20037;-59
2022/11/15 01:30:21;;;;;;;268.63;64.95;;;;;;;6.50;100.00;100522.31;4996210;28;20091;-60
2022/11/15 01:32:46;;;;;;;218.15;59.78;;;;;;;6.51;100.00;100516.19;5005200;28;20466;-59
2022/11/15 01:35:11;;;;;;;241.65;63.10;;;;;;;6.83;100.00;100559.97;4994174;28;20042;-60
2022/11/15 01:37:36;;;;;;;210.88;61.08;;;;;;;6.85;100.00;100560.78;5003870;28;20043;-60
2022/11/15 01:40:03;;;;;;;258.65;66.72;;;;;;;6.85;100.00;100559.03;5000225;28;20062;-59
2022/11/15 01:42:28;;;;;;;236.20;64.13;;;;;;;6.89;100.00;100560.69;5041343;28;20053;-59
2022/11/15 01:44:54;;;;;;;225.65;63.65;;;;;;;6.56;100.00;100499.50;5010876;28;20452;-60
2022/11/15 01:47:21;;;;;;;227.10;63.92;;;;;;;6.58;100.00;100499.47;5094416;28;20477;-60
2022/11/15 01:50:04;;;;;;;215.15;62.38;;;;;;;6.64;100.00;100500.19;5011471;28;20496;-60
2022/11/15 01:52:31;;;;;;;238.25;63.60;;;;;;;6.99;100.00;100543.03;5010756;28;20030;-61
2022/11/15 01:55:00;;;;;;;231.38;63.20;;;;;;;6.62;100.00;100480.22;4993011;28;20546;-60
2022/11/15 01:57:26;;;;;;;220.32;64.68;;;;;;;7.04;100.00;100542.03;5006466;28;20049;-60
2022/11/15 01:59:51;;;;;;;230.00;63.00;;;;;;;6.32;100.00;100416.38;4998529;28;20034;-60
2022/11/15 02:02:16;;;;;;;238.73;65.88;;;;;;;6.75;100.00;100481.63;4999539;28;20045;-60
2022/11/15 02:04:44;;;;;;;236.77;66.57;;;;;;;6.69;100.00;100472.19;5003768;28;20413;-60
2022/11/15 02:07:13;;;;;;;245.32;67.68;;;;;;;6.94;100.00;100506.50;4998601;28;20050;-59
2022/11/15 02:09:39;;;;;;;249.55;68.10;;;;;;;7.15;100.00;100523.47;5003331;28;20039;-60
2022/11/15 02:12:06;;;;;;;234.27;66.78;;;;;;;7.16;100.00;100520.81;4998615;28;20492;-60
2022/11/15 02:14:31;;;;;;;237.85;67.07;;;;;;;7.19;100.00;100518.13;4997511;28;20034;-60
2022/11/15 02:17:22;;;;;;;232.43;66.20;;;;;;;7.22;100.00;100506.72;5006779;28;20106;-60
2022/11/15 02:20:16;;;;;;;249.68;69.53;;;;;;;7.17;100.00;100495.50;4997437;28;20100;-60
2022/11/15 02:23:19;;;;;;;263.88;68.47;;;;;;;7.29;100.00;100500.44;4995957;28;20394;-60
2022/11/15 02:26:22;;;;;;;258.45;67.82;;;;;;;7.33;100.00;100508.16;4997191;28;20490;-60
2022/11/15 02:28:53;;;;;;;251.25;68.78;;;;;;;7.37;100.00;100511.59;4995047;28;20125;-60
2022/11/15 02:31:28;;;;;;;234.65;67.63;;;;;;;7.02;100.00;100428.69;5008512;28;20382;-59
2022/11/15 02:34:04;;;;;;;210.00;66.68;;;;;;;6.98;100.00;100413.06;5008660;28;20121;-60
2022/11/15 02:36:37;;;;;;;262.33;71.03;;;;;;;7.50;100.00;100499.06;5013963;28;20065;-59
2022/11/15 02:39:10;;;;;;;245.88;66.80;;;;;;;7.48;100.00;100492.97;4999679;28;20550;-59
2022/11/15 02:41:42;;;;;;;260.17;71.68;;;;;;;7.44;100.00;100476.50;5005329;28;20450;-60
2022/11/15 02:44:31;;;;;;;225.60;68.05;;;;;;;7.53;100.00;100491.94;5034025;28;20482;-60
2022/11/15 02:47:15;;;;;;;240.05;69.07;;;;;;;7.58;100.00;100490.09;5008488;28;20053;-60
2022/11/15 02:50:08;;;;;;;214.80;67.82;;;;;;;7.63;100.00;100488.22;4995081;28;20029;-60
2022/11/15 02:52:33;;;;;;;264.83;70.15;;;;;;;7.62;100.00;100480.38;4996783;28;20064;-59
2022/11/15 02:55:00;;;;;;;256.27;70.38;;;;;;;7.50;100.00;100451.91;5006734;28;20540;-60
2022/11/15 02:57:25;;;;;;;214.40;69.53;;;;;;;7.68;100.00;100477.59;5005896;28;20406;-59
2022/11/15 03:00:04;;;;;;;264.77;74.88;;;;;;;7.70;100.00;100478.44;4997449;28;20041;-60
2022/11/15 03:03:08;;;;;;;244.38;70.53;;;;;;;7.73;100.00;100476.59;4996318;28;20026;-60
2022/11/15 03:05:52;;;;;;;254.77;71.05;;;;;;;7.76;100.00;100473.03;5006193;28;20068;-60
2022/11/15 03:08:24;;;;;;;257.48;70.55;;;;;;;7.69;100.00;100461.88;5000836;28;20034;-59
2022/11/15 03:11:04;;;;;;;253.60;71.18;;;;;;;7.81;100.00;100479.88;5008194;28;20045;-59
2022/11/15 03:13:52;;;;;;;242.55;69.63;;;;;;;7.84;100.00;100473.69;4994306;28;20038;-59
2022/11/15 03:16:37;;;;;;;242.63;70.90;;;;;;;7.85;100.00;100472.81;4998107;28;20057;-59
2022/11/15 03:19:19;;;;;;;238.77;69.32;;;;;;;7.80;100.00;100467.66;5005644;28;20034;-59
2022/11/15 03:21:44;;;;;;;234.93;68.55;;;;;;;7.52;100.00;100416.06;4994784;28;20030;-59
2022/11/15 03:24:11;;;;;;;233.10;67.72;;;;;;;7.89;100.00;100472.66;5043000;28;20037;-59
2022/11/15 03:26:38;;;;;;;198.35;65.88;;;;;;;7.58;100.00;100416.75;5007718;28;20397;-59
2022/11/15 03:29:17;;;;;;;244.43;69.43;;;;;;;7.96;100.00;100462.00;5081413;28;20045;-59
2022/11/15 03:31:46;;;;;;;212.70;67.65;;;;;;;8.01;100.00;100458.38;5004022;28;20555;-59
2022/11/15 03:34:23;;;;;;;190.93;65.50;;;;;;;7.94;100.00;100444.56;5004380;28;20108;-59
2022/11/15 03:36:49;;;;;;;202.00;66.47;;;;;;;8.09;100.00;100466.00;5065888;28;20083;-59
2022/11/15 03:39:15;;;;;;;199.10;65.88;;;;;;;8.08;100.00;100448.56;5006575;28;20040;-59
2022/11/15 03:41:46;;;;;;;166.65;63.20;;;;;;;7.81;100.00;100392.53;4993915;28;20388;-59
2022/11/15 03:44:21;;;;;;;181.52;63.88;;;;;;;8.22;100.00;100454.28;4998647;28;20034;-59
2022/11/15 03:46:52;;;;;;;161.40;59.25;;;;;;;8.20;100.00;100446.44;5003026;28;20371;-59
2022/11/15 03:49:38;;;;;;;;;;;;;;;8.30;100.00;100453.19;4991789;28;20034;-59
2022/11/15 03:52:04;;;;;;;157.85;57.70;;;;;;;8.35;100.00;100460.91;5000280;28;20001;-59
2022/11/15 03:54:30;;;;;;;139.43;56.83;;;;;;;8.38;100.00;100450.31;5000890;28;20631;-59
2022/11/15 03:56:55;;;;;;;123.57;55.28;;;;;;;8.46;100.00;100441.31;4992571;28;20027;-59
2022/11/15 03:59:20;;;;;;;136.23;55.35;;;;;;;8.59;100.00;100441.81;5007753;28;20511;-59
2022/11/15 04:01:46;;;;;;;112.05;53.45;;;;;;;8.43;100.00;100402.06;5007510;28;20038;-59
2022/11/15 04:04:11;;;;;;;128.27;52.88;;;;;;;8.85;100.00;100459.38;5043905;28;20068;-59
2022/11/15 04:06:36;;;;;;;117.32;52.28;;;;;;;8.88;100.00;100461.91;5008734;28;20494;-59
2022/11/15 04:09:02;;;;;;;124.93;55.58;;;;;;;8.89;100.00;100451.38;4992319;28;20042;-61
2022/11/15 04:11:27;;;;;;;129.80;54.30;;;;;;;8.62;100.00;100394.50;5004264;28;20030;-61
2022/11/15 04:13:53;;;;;;;124.18;54.72;;;;;;;9.02;100.00;100452.69;4996610;28;20038;-61
2022/11/15 04:16:18;;;;;;;123.90;54.85;;;;;;;8.99;100.00;100444.03;4997617;28;20330;-62
2022/11/15 04:18:43;;;;;;;111.97;51.25;;;;;;;9.00;100.00;100451.88;5003519;28;20048;-62
2022/11/15 04:26:21;;;;;;;93.95;46.83;;;;;;;8.85;100.00;100402.50;4999844;28;20117;-62
2022/11/15 04:31:30;;;;;;;90.47;44.53;;;;;;;9.13;100.00;100427.88;4993181;28;20168;-62
2022/11/15 04:33:55;;;;;;;85.85;43.58;;;;;;;9.15;100.00;100431.28;5008264;28;20189;-62
2022/11/15 04:39:04;;;;;;;83.15;41.00;;;;;;;9.26;100.00;100429.16;5004745;28;20586;-60
2022/11/15 04:41:30;;;;;;;88.90;40.75;;;;;;;8.94;100.00;100364.59;5008184;28;20034;-61
2022/11/15 04:43:55;;;;;;;74.32;38.38;;;;;;;8.98;100.00;100371.47;5000316;28;20176;-61
2022/11/15 04:46:22;;;;;;;77.78;36.83;;;;;;;9.01;100.00;100366.97;4982368;28;20402;-61
2022/11/15 04:48:47;;;;;;;73.47;36.97;;;;;;;9.36;100.00;100441.09;4991768;28;20103;-62
2022/11/15 04:51:13;;;;;;;72.50;35.50;;;;;;;9.33;100.00;100431.53;5002977;28;20210;-61
2022/11/15 04:53:38;;;;;;;71.68;36.53;;;;;;;9.40;100.00;100453.19;4994584;28;20117;-62
2022/11/15 04:56:03;;;;;;;75.47;33.83;;;;;;;9.01;100.00;100393.22;4999222;28;20144;-61
2022/11/15 04:58:29;;;;;;;76.93;33.75;;;;;;;9.02;100.00;100399.31;5001022;28;20042;-61
2022/11/15 05:00:54;;;;;;;65.05;33.58;;;;;;;9.25;100.00;100436.16;4992399;28;20038;-61
2022/11/15 05:06:03;;;;;;;57.40;30.90;;;;;;;9.02;100.00;100412.44;4997356;28;20118;-61
2022/11/15 05:08:29;;;;;;;59.25;31.95;;;;;;;9.09;100.00;100413.97;4998797;28;20050;-61
2022/11/15 05:10:54;;;;;;;52.50;29.52;;;;;;;9.05;100.00;100399.22;5007845;28;20543;-60
2022/11/15 05:13:19;;;;;;;59.65;32.17;;;;;;;9.50;100.00;100475.63;4995322;28;20366;-61
2022/11/15 05:15:45;;;;;;;55.13;29.67;;;;;;;9.51;100.00;100461.59;5004568;28;20038;-60
2022/11/15 05:18:11;;;;;;;58.53;30.42;;;;;;;9.12;100.00;100398.13;5001382;28;20045;-61
2022/11/15 05:20:36;;;;;;;59.92;31.25;;;;;;;8.87;100.00;100353.44;4997410;28;20046;-61
2022/11/15 05:23:01;;;;;;;56.78;31.13;;;;;;;9.53;100.00;100470.25;5007966;28;20037;-61
2022/11/15 05:25:27;;;;;;;56.25;28.95;;;;;;;9.51;100.00;100454.56;4995851;28;20037;-61
2022/11/15 05:27:52;;;;;;;54.60;30.95;;;;;;;9.49;100.00;100459.00;5003570;28;20478;-61
2022/11/15 05:30:18;;;;;;;53.90;30.77;;;;;;;9.43;100.00;100451.31;4985064;28;20083;-62
2022/11/15 05:32:44;;;;;;;63.85;30.33;;;;;;;9.37;100.00;100451.53;5007574;28;20038;-62
2022/11/15 05:35:15;;;;;;;59.28;29.52;;;;;;;9.19;100.00;100401.41;5009050;28;20030;-61
2022/11/15 05:37:40;;;;;;;56.88;29.92;;;;;;;9.56;100.00;100462.28;4997242;28;20059;-61
2022/11/15 05:40:06;;;;;;;52.00;29.00;;;;;;;9.14;100.00;100396.28;5001703;28;20034;-61
2022/11/15 05:42:32;;;;;;;54.03;29.00;;;;;;;9.50;100.00;100462.50;5004287;28;20026;-61
2022/11/15 05:44:58;;;;;;;51.60;27.75;;;;;;;9.47;100.00;100462.59;4994685;28;20031;-61
2022/11/15 05:47:25;;;;;;;53.13;28.20;;;;;;;9.40;100.00;100459.31;5011348;28;20038;-61
2022/11/15 05:49:51;;;;;;;54.03;27.83;;;;;;;9.05;100.00;100409.72;5010651;28;20091;-61
2022/11/15 05:52:20;;;;;;;49.92;28.00;;;;;;;9.06;100.00;100416.69;4999751;28;20042;-61
2022/11/15 05:54:46;;;;;;;47.90;27.88;;;;;;;9.32;100.00;100448.19;5004591;28;20116;-61
2022/11/15 05:57:11;;;;;;;56.70;28.10;;;;;;;8.79;100.00;100350.22;5088352;28;20117;-61
2022/11/15 05:59:37;;;;;;;47.13;27.67;;;;;;;9.41;100.00;100454.91;5020801;28;20057;-61
2022/11/15 06:02:02;;;;;;;51.40;27.05;;;;;;;9.09;100.00;100411.34;5010562;28;20037;-61
2022/11/15 06:04:28;;;;;;;47.70;28.02;;;;;;;9.46;100.00;100472.22;4998359;28;20129;-61
2022/11/15 06:06:53;;;;;;;44.33;27.48;;;;;;;9.15;100.00;100419.03;5005981;28;20050;-61
2022/11/15 06:09:19;;;;;;;45.70;27.15;;;;;;;9.45;100.00;100481.03;4995637;28;20083;-62
2022/11/15 06:11:44;;;;;;;44.55;27.27;;;;;;;9.37;100.00;100485.66;5008479;28;20448;-61
2022/11/15 06:14:10;;;;;;;45.60;25.83;;;;;;;9.05;100.00;100446.47;5002873;28;20099;-63
2022/11/15 06:16:36;;;;;;;46.10;25.17;;;;;;;9.31;100.00;100485.03;5000308;28;20046;-60
2022/11/15 06:19:01;;;;;;;41.55;24.05;;;;;;;9.27;100.00;100476.41;5003887;28;20479;-61
2022/11/15 06:21:30;;;;;;;44.83;24.95;;;;;;;9.23;100.00;100482.66;5025445;28;20061;-62
2022/11/15 06:23:55;;;;;;;45.03;24.52;;;;;;;8.93;100.00;100446.88;5010797;28;20026;-66
2022/11/15 06:26:21;;;;;;;39.97;22.98;;;;;;;9.10;100.00;100481.34;5010754;28;20049;-63
2022/11/15 06:28:46;;;;;;;38.55;22.50;;;;;;;8.92;100.00;100469.66;5009228;28;20124;-64
2022/11/15 06:31:12;;;;;;;38.20;21.48;;;;;;;9.00;100.00;100493.88;5009480;28;20087;-64
2022/11/15 06:33:38;;;;;;;29.85;18.77;;;;;;;8.65;100.00;100420.63;5009794;28;20435;-60
2022/11/15 06:36:05;;;;;;;35.47;19.65;;;;;;;8.24;100.00;100366.78;5010691;28;20034;-61
2022/11/15 06:38:30;;;;;;;33.63;18.20;;;;;;;8.59;100.00;100422.59;4993051;28;20037;-62
2022/11/15 06:41:04;;;;;;;29.60;17.75;;;;;;;8.76;100.00;100471.00;5009478;28;20145;-61
2022/11/15 06:43:30;;;;;;;42.33;17.23;;;;;;;8.43;100.00;100424.84;5009160;28;20030;-61
2022/11/15 06:45:58;;;;;;;28.70;17.27;;;;;;;8.65;100.00;100473.13;5009077;28;20079;-61
2022/11/15 06:48:23;;;;;;;28.40;15.52;;;;;;;8.44;100.00;100440.50;5010203;28;20038;-60
2022/11/15 06:50:52;;;;;;;23.00;15.60;;;;;;;8.74;100.00;100511.34;5010343;28;20045;-61
2022/11/15 06:53:18;;;;;;;27.48;15.07;;;;;;;8.40;100.00;100440.66;5010259;28;20042;-60
2022/11/15 06:55:43;;;;;;;26.77;14.35;;;;;;;8.78;100.00;100516.47;5010355;28;20053;-61
2022/11/15 06:58:08;;;;;;;26.95;14.23;;;;;;;8.73;100.00;100502.59;5010331;28;20422;-61
2022/11/15 07:00:34;;;;;;;32.95;14.60;;;;;;;8.34;100.00;100448.72;5010504;28;20076;-61
2022/11/15 07:03:00;;;;;;;26.17;14.15;;;;;;;8.46;100.00;100464.91;5009982;28;20048;-60
2022/11/15 07:05:26;;;;;;;23.50;13.63;;;;;;;8.72;100.00;100503.53;5010148;28;20049;-61
2022/11/15 07:07:56;;;;;;;24.08;13.70;;;;;;;8.78;100.00;100497.22;5010043;28;20030;-61
2022/11/15 07:10:23;;;;;;;26.63;13.48;;;;;;;8.82;100.00;100504.09;5010135;28;20056;-60
2022/11/15 07:12:49;;;;;;;27.15;13.85;;;;;;;8.40;100.00;100415.31;4992440;28;20436;-61
2022/11/15 07:15:15;;;;;;;24.55;13.68;;;;;;;8.55;100.00;100453.31;5008872;28;20125;-61
2022/11/15 07:17:41;;;;;;;24.92;13.30;;;;;;;8.83;100.00;100503.19;5009764;28;20036;-60
2022/11/15 07:20:06;;;;;;;28.13;13.95;;;;;;;8.76;100.00;100493.78;5009745;28;20137;-60
2022/11/15 07:22:32;;;;;;;24.08;13.77;;;;;;;8.83;100.00;100501.44;5009812;28;20045;-60
2022/11/15 07:24:57;;;;;;;22.83;13.43;;;;;;;8.84;100.00;100516.25;5008428;28;20034;-62
2022/11/15 07:27:22;;;;;;;24.70;13.07;;;;;;;8.47;100.00;100432.56;5009551;28;20462;-60
2022/11/15 07:29:48;;;;;;;21.50;12.70;;;;;;;8.92;100.00;100502.91;5008725;28;20147;-60
2022/11/15 07:32:13;;;;;;;20.85;12.90;;;;;;;9.00;100.00;100498.28;5009668;28;20044;-61
2022/11/15 07:34:38;;;;;;;22.63;12.50;;;;;;;9.01;100.00;100494.75;5009328;28;20037;-60
2022/11/15 07:37:04;;;;;;;24.58;11.45;;;;;;;8.65;100.00;100425.03;5008857;28;20026;-60
2022/11/15 07:39:29;;;;;;;27.20;11.48;;;;;;;8.65;100.00;100433.75;5008859;28;20346;-62
2022/11/15 07:42:52;;;;;;;22.20;10.68;;;;;;;8.97;100.00;100498.38;5008072;28;20137;-60
2022/11/15 07:44:40;;;;;;;19.67;10.20;;;;;;;8.87;100.00;100487.28;5007676;28;20061;-61
2022/11/15 07:47:05;;;;;;;20.58;9.45;;;;;;;8.97;100.00;100493.97;5008653;28;20034;-62
2022/11/15 07:49:30;;;;;;;18.38;10.00;;;;;;;8.72;100.00;100448.41;5009521;28;20034;-61
2022/11/15 07:51:56;;;;;;;20.88;9.45;;;;;;;8.98;100.00;100497.47;5009803;28;20103;-62
2022/11/15 07:54:21;;;;;;;20.60;9.73;;;;;;;8.94;100.00;100485.34;5009178;28;20040;-62
2022/11/15 07:56:46;;;;;;;15.43;9.23;;;;;;;8.90;100.00;100483.72;5007964;28;20042;-61
2022/11/15 07:59:11;;;;;;;13.45;8.73;;;;;;;8.87;100.00;100478.59;5009715;28;20401;-62
2022/11/15 08:01:37;;;;;;;22.00;9.27;;;;;;;8.87;100.00;100474.16;5009159;28;20034;-61
2022/11/15 08:04:02;;;;;;;18.25;10.02;;;;;;;8.86;100.00;100477.72;5009157;28;20049;-64
2022/11/15 08:06:28;;;;;;;16.67;9.38;;;;;;;8.56;100.00;100423.53;5007626;28;20030;-60
2022/11/15 08:08:53;;;;;;;19.27;9.55;;;;;;;8.52;100.00;100413.22;5008775;28;20054;-60
2022/11/15 08:11:18;;;;;;;20.27;9.48;;;;;;;8.86;100.00;100461.09;5008933;28;20109;-62
2022/11/15 08:13:44;;;;;;;21.45;9.68;;;;;;;8.77;100.00;100449.13;5009197;28;20060;-61
2022/11/15 08:16:09;;;;;;;16.70;9.98;;;;;;;8.67;100.00;100423.22;5009097;28;20042;-61
2022/11/15 08:18:34;;;;;;;14.85;9.40;;;;;;;8.96;100.00;100479.13;5009008;28;20373;-63
2022/11/15 08:21:00;;;;;;;18.30;9.25;;;;;;;8.99;100.00;100473.78;5007068;28;20156;-60
2022/11/15 08:23:26;;;;;;;16.95;9.55;;;;;;;8.75;100.00;100402.84;5006866;28;20053;-63
2022/11/15 08:25:51;;;;;;;15.00;9.07;;;;;;;9.13;100.00;100457.59;4990445;28;20057;-63
2022/11/15 08:28:17;;;;;;;15.63;8.98;;;;;;;9.21;100.00;100460.84;5008347;28;20129;-60
2022/11/15 08:30:43;;;;;;;12.80;9.07;;;;;;;9.28;100.00;100449.19;5007110;28;20125;-62
2022/11/15 08:33:13;;;;;;;18.35;9.65;;;;;;;9.06;100.00;100398.31;5006437;28;20075;-63
2022/11/15 08:35:40;;;;;;;14.93;9.23;;;;;;;9.21;100.00;100403.06;5008200;28;20041;-62
2022/11/15 08:38:05;;;;;;;17.75;10.18;;;;;;;9.12;100.00;100379.72;5007998;28;20049;-61
2022/11/15 08:40:30;;;;;;;14.57;9.98;;;;;;;9.45;100.00;100451.28;5007980;28;20041;-64
2022/11/15 08:42:56;;;;;;;18.95;10.50;;;;;;;9.43;100.00;100440.81;5012289;28;20436;-63
2022/11/15 08:45:21;;;;;;;17.23;10.50;;;;;;;9.45;100.00;100441.66;5012324;28;20038;-61
2022/11/15 08:47:46;;;;;;;19.52;10.43;;;;;;;9.42;100.00;100447.00;5011901;28;20046;-61
2022/11/15 08:50:12;;;;;;;15.68;9.95;;;;;;;9.37;100.00;100438.38;5010773;28;20504;-61
2022/11/15 08:52:37;;;;;;;16.42;10.10;;;;;;;9.34;100.00;100441.13;5010851;28;20094;-63
2022/11/15 08:55:02;;;;;;;14.57;10.27;;;;;;;9.28;100.00;100433.44;5009231;28;20030;-62
2022/11/15 08:57:30;;;;;;;15.70;10.55;;;;;;;9.24;100.00;100423.09;4993354;28;20037;-61
2022/11/15 08:59:55;;;;;;;18.73;9.77;;;;;;;9.23;100.00;100431.88;5009677;28;20034;-63
2022/11/15 09:02:20;;;;;;;17.77;10.50;;;;;;;9.26;100.00;100437.91;5009972;28;20038;-63
2022/11/15 09:04:46;;;;;;;23.48;10.82;;;;;;;9.27;100.00;100439.63;5011128;28;20096;-61
2022/11/15 09:07:12;;;;;;;12.45;10.32;;;;;;;9.26;100.00;100432.66;5011274;28;20046;-62
2022/11/15 09:09:37;;;;;;;13.75;9.32;;;;;;;9.28;100.00;100443.94;5008592;28;20042;-64
2022/11/15 09:12:03;;;;;;;14.70;8.60;;;;;;;9.35;100.00;100434.97;5009175;28;20046;-62
2022/11/15 09:14:29;;;;;;;14.43;9.90;;;;;;;9.49;100.00;100437.13;5010411;28;20114;-62
2022/11/15 09:16:55;;;;;;;15.38;8.82;;;;;;;9.55;100.00;100422.00;5010392;28;20137;-62
2022/11/15 09:19:20;;;;;;;12.30;8.73;;;;;;;9.73;100.00;100432.78;5010067;28;20085;-64
2022/11/15 09:21:45;;;;;;;11.95;9.00;;;;;;;9.74;100.00;100431.88;5010014;28;20054;-64
2022/11/15 09:24:11;;;;;;;12.45;9.10;;;;;;;9.63;100.00;100398.94;5009053;28;20057;-65
2022/11/15 09:26:36;;;;;;;16.02;9.15;;;;;;;9.79;100.00;100422.91;5010289;28;20045;-64
2022/11/15 09:29:01;;;;;;;14.07;7.38;;;;;;;9.79;100.00;100420.28;5010092;28;20054;-63
2022/11/15 09:31:27;;;;;;;12.43;7.57;;;;;;;9.85;100.00;100434.97;5002988;28;20034;-63
2022/11/15 09:33:52;;;;;;;8.75;7.15;;;;;;;9.92;100.00;100439.97;4994618;28;20428;-63
2022/11/15 09:36:17;;;;;;;9.88;7.68;;;;;;;9.95;100.00;100429.31;4990948;28;20112;-64
2022/11/15 09:38:43;;;;;;;10.45;8.05;;;;;;;9.91;100.00;100413.72;4991033;28;20117;-62
2022/11/15 09:41:23;;;;;;;8.48;6.30;;;;;;;9.75;100.00;100388.94;4990636;28;20042;-64
2022/11/15 09:44:00;;;;;;;9.68;6.18;;;;;;;10.10;100.00;100441.91;4990395;28;20065;-63
2022/11/15 09:47:05;;;;;;;9.52;6.32;;;;;;;10.10;100.00;100439.28;5005353;28;20038;-65
2022/11/15 09:49:31;;;;;;;9.50;5.95;;;;;;;10.16;100.00;100433.84;4988083;28;20132;-63
2022/11/15 09:51:56;;;;;;;14.70;6.25;;;;;;;10.14;100.00;100426.94;4989345;28;20050;-62
2022/11/15 09:54:31;;;;;;;8.60;5.57;;;;;;;10.18;100.00;100417.16;4989586;28;20080;-62
2022/11/15 09:57:28;;;;;;;10.98;5.53;;;;;;;10.32;100.00;100420.97;4990384;28;20391;-65
2022/11/15 10:00:00;;;;;;;9.00;5.80;;;;;;;10.37;100.00;100418.16;4988261;28;20069;-63
2022/11/15 10:02:56;;;;;;;11.18;5.28;;;;;;;10.38;100.00;100420.75;4991025;28;20133;-63
2022/11/15 10:05:23;;;;;;;9.85;5.95;;;;;;;10.40;100.00;100407.53;4990721;28;20027;-64
2022/11/15 10:08:05;;;;;;;8.48;4.90;;;;;;;10.39;100.00;100396.13;4988712;28;20022;-63
2022/11/15 10:10:41;;;;;;;10.10;4.07;;;;;;;10.43;100.00;100392.47;4995050;28;20033;-63
2022/11/15 10:13:16;;;;;;;6.57;4.22;;;;;;;10.24;100.00;100372.22;5086867;28;20038;-63
2022/11/15 10:15:45;;;;;;;8.38;4.22;;;;;;;10.23;100.00;100366.09;4999522;28;20035;-62
2022/11/15 10:18:17;;;;;;;7.15;3.97;;;;;;;10.09;100.00;100334.19;5000323;28;20059;-61
2022/11/15 10:20:51;;;;;;;7.85;3.95;;;;;;;10.50;100.00;100417.66;4997692;28;20053;-64
2022/11/15 10:23:19;;;;;;;6.85;3.83;;;;;;;10.54;100.00;100410.47;4993619;28;20049;-60
2022/11/15 10:25:45;;;;;;;8.50;3.70;;;;;;;10.33;100.00;100340.28;5001317;28;20082;-61
2022/11/15 10:28:21;;;;;;;11.55;4.20;;;;;;;10.34;100.00;100342.00;5008859;28;20538;-64
2022/11/15 10:30:52;;;;;;;7.25;3.70;;;;;;;10.49;100.00;100354.53;4993347;28;20035;-62
2022/11/15 10:33:26;;;;;;;9.07;3.67;;;;;;;10.35;100.00;100317.41;5020038;28;20029;-64
2022/11/15 10:36:11;;;;;;;9.77;3.60;;;;;;;10.79;100.00;100382.28;4997211;28;20034;-62
2022/11/15 10:38:52;;;;;;;7.22;3.58;;;;;;;10.53;100.00;100321.94;5004270;28;20524;-61
2022/11/15 10:41:20;;;;;;;6.10;3.63;;;;;;;10.72;100.00;100336.91;4993959;28;20030;-62
2022/11/15 10:44:07;;;;;;;6.88;3.58;;;;;;;10.59;100.00;100314.66;5000681;28;20087;-64
2022/11/15 10:46:36;;;;;;;7.40;3.67;;;;;;;10.91;100.00;100359.88;5004379;28;20067;-60
2022/11/15 10:49:31;;;;;;;5.28;3.50;;;;;;;10.94;100.00;100357.97;4993326;28;20038;-60
2022/11/15 10:52:11;;;;;;;10.10;3.42;;;;;;;10.98;100.00;100362.16;4999186;28;20048;-59
2022/11/15 10:54:49;;;;;;;5.20;3.25;;;;;;;10.69;100.00;100294.06;5004676;28;20078;-59
2022/11/15 10:57:20;;;;;;;10.48;4.22;;;;;;;10.28;100.00;100237.00;4989269;28;20031;-60
2022/11/15 11:00:02;;;;;;;7.00;3.58;;;;;;;11.21;100.00;100367.31;4989351;28;20031;-60
2022/11/15 11:02:35;;;;;;;8.07;3.70;;;;;;;11.33;100.00;100376.47;4989424;28;20030;-60
2022/11/15 11:05:02;;;;;;;6.85;3.22;;;;;;;11.48;100.00;100364.44;5025221;28;20046;-60
2022/11/15 11:07:33;;;;;;;6.28;3.45;;;;;;;11.35;100.00;100321.09;5009244;28;20034;-60
2022/11/15 11:10:05;;;;;;;7.35;3.10;;;;;;;11.36;100.00;100309.63;4998620;28;20030;-62
2022/11/15 11:12:34;;;;;;;7.28;3.30;;;;;;;11.62;100.00;100336.53;5003901;28;20079;-58
2022/11/15 11:15:01;;;;;;;5.07;3.10;;;;;;;11.77;100.00;100364.03;4996631;28;20049;-59
2022/11/15 11:17:50;;;;;;;7.78;3.20;;;;;;;11.68;100.00;100340.69;4989247;28;20046;-59
2022/11/15 11:20:20;;;;;;;7.78;2.60;;;;;;;11.78;100.00;100350.81;4987656;28;20103;-59
2022/11/15 11:23:10;;;;;;;7.47;2.40;;;;;;;11.89;100.00;100330.97;4997741;28;20026;-58
2022/11/15 11:26:03;;;;;;;5.05;2.40;;;;;;;11.55;100.00;100257.81;5009542;28;20068;-59
2022/11/15 11:28:50;;;;;;;4.65;2.42;;;;;;;12.04;100.00;100322.38;5001382;28;20398;-59
2022/11/15 11:31:42;;;;;;;5.65;2.40;;;;;;;11.99;100.00;100313.81;4989231;28;20030;-59